Time;durP1;ratioP1;P1;durP2;ratioP2;P2;SDS_P1;SDS_P2;PMS_P1;PMS_P2;Temp;Humidity;BMP_temperature;BMP_pressure;BME280_temperature;BME280_humidity;BME280_pressure;Samples;Min_cycle;Max_cycle;Signal;HPM_P1;HPM_P2
2022/04/04 00:02:04;;;;;;;1.33;1.23;;;13.80;40.60;;;;;;5088168;28;47163;-16
2022/04/04 00:04:30;;;;;;;1.27;1.17;;;13.80;40.60;;;;;;5088687;28;46802;-15
2022/04/04 00:06:59;;;;;;;1.77;1.30;;;13.80;40.60;;;;;;5088450;28;47120;-24
2022/04/04 00:09:26;;;;;;;1.45;1.35;;;13.80;40.60;;;;;;5088324;28;47250;-25
2022/04/04 00:11:53;;;;;;;1.98;1.40;;;13.70;40.50;;;;;;5088251;28;46991;-16
2022/04/04 00:14:20;;;;;;;1.60;1.50;;;13.70;40.60;;;;;;5087979;28;47130;-25
2022/04/04 00:16:46;;;;;;;1.40;1.30;;;13.70;40.60;;;;;;5088660;27;46864;-17
2022/04/04 00:19:14;;;;;;;1.17;1.15;;;13.70;40.60;;;;;;5087776;28;48634;-16
2022/04/04 00:21:41;;;;;;;2.30;1.40;;;13.70;40.60;;;;;;5088197;28;46980;-25
2022/04/04 00:24:08;;;;;;;1.40;1.30;;;13.70;40.60;;;;;;5088172;28;46831;-25
2022/04/04 00:26:35;;;;;;;1.40;1.30;;;13.70;40.60;;;;;;5088593;28;46925;-25
2022/04/04 00:29:02;;;;;;;1.77;1.60;;;13.70;40.60;;;;;;5087999;28;48105;-24
2022/04/04 00:31:28;;;;;;;1.75;1.60;;;13.60;40.60;;;;;;5087754;28;47450;-17
2022/04/04 00:33:55;;;;;;;2.67;1.30;;;13.60;40.60;;;;;;5087132;28;46923;-24
2022/04/04 00:36:23;;;;;;;1.98;1.30;;;13.70;40.70;;;;;;5088181;28;47006;-16
2022/04/04 00:38:50;;;;;;;1.40;1.30;;;13.60;40.50;;;;;;5087442;28;48021;-25
2022/04/04 00:41:17;;;;;;;1.98;1.48;;;13.60;40.50;;;;;;5087640;28;46815;-25
2022/04/04 00:43:44;;;;;;;1.33;1.23;;;13.60;40.60;;;;;;5087876;28;46902;-17
2022/04/04 00:46:11;;;;;;;1.38;1.25;;;13.60;40.60;;;;;;5087888;28;46934;-25
2022/04/04 00:48:37;;;;;;;1.67;1.37;;;13.60;40.50;;;;;;5087396;28;49072;-16
2022/04/04 00:51:04;;;;;;;1.50;1.40;;;13.60;40.50;;;;;;5087833;28;46911;-16
2022/04/04 00:53:32;;;;;;;2.03;1.35;;;13.60;40.50;;;;;;5086968;28;47024;-25
2022/04/04 00:55:59;;;;;;;1.40;1.30;;;13.60;40.60;;;;;;5087695;28;47179;-24
2022/04/04 00:58:26;;;;;;;1.60;1.35;;;13.60;41.20;;;;;;5087383;28;48167;-16
2022/04/04 01:00:53;;;;;;;2.00;1.45;;;13.50;40.40;;;;;;5087523;28;46940;-24
2022/04/04 01:03:19;;;;;;;2.20;1.58;;;13.50;40.50;;;;;;5087454;28;47034;-16
2022/04/04 01:05:46;;;;;;;1.33;1.23;;;13.50;40.50;;;;;;5087865;28;46869;-16
2022/04/04 01:08:13;;;;;;;1.48;1.38;;;13.50;40.50;;;;;;5087054;28;46862;-15
2022/04/04 01:10:42;;;;;;;2.25;1.42;;;13.50;40.50;;;;;;5087392;28;46907;-24
2022/04/04 01:13:10;;;;;;;2.05;1.48;;;13.50;40.50;;;;;;5087005;28;46924;-25
2022/04/04 01:15:37;;;;;;;1.83;1.50;;;13.50;41.10;;;;;;5087748;28;47119;-24
2022/04/04 01:18:04;;;;;;;1.10;1.10;;;13.50;40.50;;;;;;5087065;28;48887;-25
2022/04/04 01:20:31;;;;;;;1.40;1.20;;;13.50;40.50;;;;;;5087464;28;46897;-17
2022/04/04 01:22:58;;;;;;;1.50;1.40;;;13.50;40.50;;;;;;5086956;28;47108;-25
2022/04/04 01:25:27;;;;;;;1.42;1.20;;;13.50;40.50;;;;;;5087232;28;46866;-16
2022/04/04 01:27:55;;;;;;;1.40;1.30;;;13.40;40.50;;;;;;5087000;28;47870;-25
2022/04/04 01:30:22;;;;;;;2.85;1.50;;;13.40;40.50;;;;;;5086940;28;46974;-25
2022/04/04 01:32:49;;;;;;;1.30;1.23;;;13.40;40.50;;;;;;5086659;28;46876;-25
2022/04/04 01:35:16;;;;;;;1.27;1.20;;;13.50;40.50;;;;;;5087070;28;47085;-16
2022/04/04 01:37:43;;;;;;;1.30;1.20;;;13.40;40.50;;;;;;5086960;28;49064;-25
2022/04/04 01:40:10;;;;;;;1.30;1.20;;;13.50;40.40;;;;;;5086999;28;47457;-17
2022/04/04 01:42:38;;;;;;;1.58;1.48;;;13.50;40.50;;;;;;5086658;27;47056;-15
2022/04/04 01:45:06;;;;;;;1.40;1.30;;;13.50;40.30;;;;;;5086703;27;47162;-16
2022/04/04 01:47:33;;;;;;;1.17;1.08;;;13.50;40.30;;;;;;5086366;28;47877;-25
2022/04/04 01:49:59;;;;;;;1.33;1.20;;;13.50;40.30;;;;;;5086633;28;47576;-25
2022/04/04 01:52:26;;;;;;;1.27;1.17;;;13.50;40.30;;;;;;5086706;28;46913;-25
2022/04/04 01:54:53;;;;;;;1.27;1.17;;;13.50;40.30;;;;;;5086863;28;47108;-18
2022/04/04 01:57:20;;;;;;;1.30;1.17;;;13.50;40.20;;;;;;5086528;28;49046;-15
2022/04/04 01:59:48;;;;;;;1.35;1.25;;;13.40;40.30;;;;;;5086628;28;46969;-17
2022/04/04 02:02:14;;;;;;;1.77;1.27;;;13.40;40.20;;;;;;5086777;28;46953;-16
2022/04/04 02:04:41;;;;;;;1.30;1.20;;;13.40;40.20;;;;;;5086928;28;46915;-17
2022/04/04 02:07:08;;;;;;;1.20;1.10;;;13.40;40.30;;;;;;5086158;28;48765;-25
2022/04/04 02:09:35;;;;;;;1.13;1.02;;;13.40;40.40;;;;;;5086215;28;46897;-24
2022/04/04 02:12:02;;;;;;;1.20;1.10;;;13.40;40.30;;;;;;5086523;28;46884;-16
2022/04/04 02:14:29;;;;;;;1.33;1.23;;;13.30;40.30;;;;;;5086308;28;46858;-25
2022/04/04 02:16:57;;;;;;;1.30;1.20;;;13.30;40.30;;;;;;5086207;28;47948;-17
2022/04/04 02:19:24;;;;;;;1.20;1.20;;;13.30;40.30;;;;;;5085988;28;46875;-17
2022/04/04 02:21:50;;;;;;;1.40;1.30;;;13.30;40.30;;;;;;5086625;28;46915;-24
2022/04/04 02:24:17;;;;;;;1.10;1.10;;;13.20;40.40;;;;;;5086469;28;46771;-25
2022/04/04 02:26:44;;;;;;;1.37;1.27;;;13.20;40.40;;;;;;5086256;28;48150;-16
2022/04/04 02:29:11;;;;;;;1.40;1.20;;;13.20;40.40;;;;;;5085686;28;46999;-16
2022/04/04 02:31:37;;;;;;;1.60;1.30;;;13.20;40.40;;;;;;5085945;28;46838;-25
2022/04/04 02:34:05;;;;;;;1.37;1.27;;;13.20;40.40;;;;;;5086233;28;47093;-16
2022/04/04 02:36:32;;;;;;;1.90;1.23;;;13.20;40.50;;;;;;5086016;28;46795;-25
2022/04/04 02:38:59;;;;;;;1.40;1.30;;;13.10;40.50;;;;;;5085986;28;46972;-25
2022/04/04 02:41:25;;;;;;;1.60;1.30;;;13.10;40.50;;;;;;5086079;28;46936;-24
2022/04/04 02:43:52;;;;;;;1.50;1.40;;;13.10;40.50;;;;;;5086139;28;47112;-15
2022/04/04 02:46:19;;;;;;;1.47;1.37;;;13.00;40.40;;;;;;5086018;28;47180;-16
2022/04/04 02:48:45;;;;;;;1.40;1.30;;;13.10;40.50;;;;;;5085345;28;47481;-15
2022/04/04 02:51:13;;;;;;;1.55;1.45;;;13.00;40.40;;;;;;5086057;28;46847;-16
2022/04/04 02:53:40;;;;;;;1.30;1.20;;;13.00;40.50;;;;;;5085461;28;46993;-24
2022/04/04 02:58:51;;;;;;;1.80;1.27;;;13.00;40.50;;;;;;5085137;28;47102;-16
2022/04/04 03:01:20;;;;;;;1.70;1.60;;;13.10;40.60;;;;;;5085593;28;46921;-24
2022/04/04 03:03:47;;;;;;;1.53;1.37;;;13.10;40.50;;;;;;5085846;28;46971;-15
2022/04/04 03:06:15;;;;;;;1.70;1.60;;;13.10;40.50;;;;;;5085685;28;49074;-25
2022/04/04 03:08:42;;;;;;;1.80;1.30;;;13.10;40.50;;;;;;5085268;28;47073;-24
2022/04/04 03:11:08;;;;;;;1.50;1.40;;;13.10;40.50;;;;;;5085357;28;46910;-25
2022/04/04 03:13:35;;;;;;;1.67;1.47;;;13.00;40.40;;;;;;5085850;28;47288;-16
2022/04/04 03:16:02;;;;;;;1.57;1.27;;;13.00;40.40;;;;;;5085320;28;47875;-17
2022/04/04 03:18:28;;;;;;;1.57;1.30;;;13.00;40.40;;;;;;5085579;28;47151;-15
2022/04/04 03:20:55;;;;;;;1.50;1.40;;;13.00;40.40;;;;;;5085350;28;46896;-15
2022/04/04 03:23:25;;;;;;;1.43;1.30;;;13.00;40.40;;;;;;5085574;28;46841;-17
2022/04/04 03:25:52;;;;;;;1.50;1.40;;;13.00;40.40;;;;;;5085562;27;49008;-16
2022/04/04 03:28:19;;;;;;;1.07;1.07;;;13.00;40.30;;;;;;5085210;28;47510;-24
2022/04/04 03:30:46;;;;;;;1.20;1.10;;;13.00;40.40;;;;;;5085521;27;46921;-17
2022/04/04 03:33:12;;;;;;;1.40;1.30;;;13.00;40.30;;;;;;5085170;28;46923;-16
2022/04/04 03:35:39;;;;;;;1.60;1.50;;;13.00;40.40;;;;;;5085111;28;46987;-17
2022/04/04 03:38:07;;;;;;;1.53;1.43;;;13.00;40.40;;;;;;5084877;28;46986;-24
2022/04/04 03:40:36;;;;;;;1.70;1.60;;;13.00;40.40;;;;;;5085109;28;46732;-25
2022/04/04 03:43:03;;;;;;;1.20;1.20;;;13.00;40.60;;;;;;5085116;28;47013;-16
2022/04/04 03:45:30;;;;;;;2.13;1.30;;;12.90;40.30;;;;;;5085138;28;49097;-17
2022/04/04 03:47:57;;;;;;;1.50;1.40;;;13.00;40.40;;;;;;5085082;28;46894;-25
2022/04/04 03:50:24;;;;;;;1.40;1.30;;;12.90;40.30;;;;;;5085103;28;46833;-17
2022/04/04 03:52:52;;;;;;;1.70;1.60;;;12.90;40.30;;;;;;5085114;28;46889;-25
2022/04/04 03:55:19;;;;;;;1.97;1.50;;;12.90;40.30;;;;;;5085244;27;48263;-25
2022/04/04 03:57:48;;;;;;;1.70;1.50;;;12.90;40.30;;;;;;5084862;28;46807;-25
2022/04/04 04:00:15;;;;;;;1.63;1.50;;;12.80;40.40;;;;;;5084901;28;46806;-17
2022/04/04 04:02:42;;;;;;;2.63;1.60;;;12.90;40.30;;;;;;5084958;28;46957;-17
2022/04/04 04:05:09;;;;;;;1.43;1.33;;;12.80;40.20;;;;;;5084897;28;48121;-25
2022/04/04 04:07:36;;;;;;;1.60;1.50;;;12.90;40.30;;;;;;5087202;27;47364;-16
2022/04/04 04:10:03;;;;;;;1.70;1.60;;;12.90;40.20;;;;;;5088324;28;46866;-25
2022/04/04 04:12:29;;;;;;;2.00;1.60;;;12.80;40.20;;;;;;5088214;28;46861;-24
2022/04/04 04:14:57;;;;;;;2.23;1.67;;;12.80;40.20;;;;;;5088379;28;48791;-25
2022/04/04 04:17:24;;;;;;;2.10;1.67;;;12.80;40.20;;;;;;5088228;28;46853;-16
2022/04/04 04:22:35;;;;;;;2.57;1.60;;;12.90;40.60;;;;;;5085793;28;46885;-17
2022/04/04 04:25:02;;;;;;;2.27;1.63;;;12.80;40.00;;;;;;5088088;28;47969;-25
2022/04/04 04:27:29;;;;;;;2.10;1.63;;;12.80;40.00;;;;;;5087640;28;46902;-25
2022/04/04 04:29:57;;;;;;;1.80;1.57;;;12.80;40.10;;;;;;5088162;28;46822;-17
2022/04/04 04:32:24;;;;;;;1.77;1.67;;;12.70;40.00;;;;;;5088237;28;46985;-25
2022/04/04 04:34:51;;;;;;;2.13;1.53;;;12.70;40.00;;;;;;5087786;28;47068;-25
2022/04/04 04:37:18;;;;;;;1.43;1.33;;;12.70;40.10;;;;;;5087908;28;47503;-16
2022/04/04 04:39:44;;;;;;;1.67;1.37;;;12.60;40.10;;;;;;5087819;28;46801;-16
2022/04/04 04:42:11;;;;;;;1.97;1.67;;;12.70;40.10;;;;;;5087505;28;46854;-23
2022/04/04 04:44:38;;;;;;;1.57;1.47;;;12.60;40.10;;;;;;5087786;28;47083;-25
2022/04/04 04:47:07;;;;;;;2.10;1.70;;;12.60;40.20;;;;;;5087743;28;47522;-17
2022/04/04 04:49:34;;;;;;;1.70;1.40;;;12.60;40.20;;;;;;5087631;28;46782;-17
2022/04/04 04:52:01;;;;;;;1.43;1.33;;;12.60;40.20;;;;;;5088042;28;46881;-16
2022/04/04 04:54:28;;;;;;;1.40;1.30;;;12.60;40.20;;;;;;5087376;28;49027;-25
2022/04/04 04:56:55;;;;;;;1.40;1.30;;;12.60;40.20;;;;;;5087487;28;46981;-17
2022/04/04 04:59:21;;;;;;;1.27;1.20;;;12.60;40.20;;;;;;5087721;28;46997;-25
2022/04/04 05:01:48;;;;;;;1.53;1.43;;;12.60;40.20;;;;;;5087987;28;46933;-25
2022/04/04 05:04:16;;;;;;;1.57;1.47;;;12.60;40.10;;;;;;5087037;28;48044;-25
2022/04/04 05:06:48;;;;;;;1.67;1.30;;;12.60;40.10;;;;;;5087562;28;47442;-17
2022/04/04 05:09:15;;;;;;;1.80;1.40;;;12.60;40.10;;;;;;5087173;28;46863;-16
2022/04/04 05:11:42;;;;;;;1.87;1.53;;;12.60;40.20;;;;;;5087697;28;46915;-24
2022/04/04 05:14:15;;;;;;;1.30;1.20;;;12.60;40.10;;;;;;5086969;28;47098;-25
2022/04/04 05:16:42;;;;;;;2.03;1.40;;;12.60;40.00;;;;;;5087695;28;46907;-25
2022/04/04 05:19:09;;;;;;;1.10;1.10;;;12.60;40.00;;;;;;5086343;28;46791;-25
2022/04/04 05:21:37;;;;;;;1.57;1.47;;;12.60;40.00;;;;;;5087191;28;47190;-25
2022/04/04 05:24:05;;;;;;;1.33;1.23;;;12.50;40.00;;;;;;5087002;28;46905;-25
2022/04/04 05:26:32;;;;;;;1.40;1.30;;;12.50;40.10;;;;;;5087016;28;47185;-23
2022/04/04 05:28:58;;;;;;;1.77;1.50;;;12.50;40.20;;;;;;5087147;28;47064;-25
2022/04/04 05:31:25;;;;;;;1.70;1.60;;;12.50;40.00;;;;;;5087465;28;46949;-17
2022/04/04 05:33:52;;;;;;;2.00;1.80;;;12.50;39.80;;;;;;5086871;28;49038;-25
2022/04/04 05:36:20;;;;;;;1.73;1.60;;;12.50;39.80;;;;;;5086665;28;46985;-16
2022/04/04 05:38:50;;;;;;;2.20;1.47;;;12.50;39.80;;;;;;5086778;28;46966;-17
2022/04/04 05:41:17;;;;;;;1.73;1.63;;;12.40;39.80;;;;;;5087406;28;46923;-16
2022/04/04 05:43:44;;;;;;;1.67;1.57;;;12.40;39.70;;;;;;5086490;28;47867;-25
2022/04/04 05:46:11;;;;;;;1.60;1.50;;;12.50;39.80;;;;;;5086941;28;46893;-25
2022/04/04 05:48:38;;;;;;;1.97;1.63;;;12.40;39.70;;;;;;5086768;28;47024;-25
2022/04/04 05:51:05;;;;;;;1.60;1.40;;;12.40;39.80;;;;;;5086731;28;46845;-25
2022/04/04 05:53:31;;;;;;;1.50;1.40;;;12.40;39.80;;;;;;5085741;28;48142;-26
2022/04/04 05:56:00;;;;;;;1.80;1.63;;;12.40;39.70;;;;;;5086249;28;46757;-17
2022/04/04 05:58:26;;;;;;;2.50;1.60;;;12.50;39.80;;;;;;5086239;28;46875;-15
2022/04/04 06:00:53;;;;;;;1.63;1.53;;;12.40;39.80;;;;;;5085114;28;47128;-25
2022/04/04 06:03:20;;;;;;;3.63;1.80;;;12.50;39.80;;;;;;5085673;28;49147;-25
2022/04/04 06:05:49;;;;;;;2.57;1.90;;;12.50;39.70;;;;;;5086305;28;46890;-18
2022/04/04 06:08:16;;;;;;;1.70;1.60;;;12.40;39.60;;;;;;5086314;28;47418;-26
2022/04/04 06:10:45;;;;;;;2.13;1.80;;;12.40;39.40;;;;;;5086409;28;46835;-25
2022/04/04 06:13:13;;;;;;;1.77;1.67;;;12.40;39.50;;;;;;5086260;28;48591;-18
2022/04/04 06:15:40;;;;;;;1.73;1.60;;;12.40;39.50;;;;;;5086004;28;46836;-17
2022/04/04 06:18:07;;;;;;;1.47;1.37;;;12.40;39.50;;;;;;5086110;28;47086;-16
2022/04/04 06:20:33;;;;;;;4.20;1.50;;;12.40;39.50;;;;;;5086484;28;47050;-17
2022/04/04 06:23:00;;;;;;;1.90;1.47;;;12.40;39.50;;;;;;5085703;28;48038;-26
2022/04/04 06:25:27;;;;;;;1.50;1.40;;;12.40;39.40;;;;;;5086320;28;46899;-17
2022/04/04 06:27:54;;;;;;;1.60;1.50;;;12.40;39.30;;;;;;5085209;28;46954;-17
2022/04/04 06:30:22;;;;;;;2.80;1.37;;;12.50;39.30;;;;;;5085638;27;46892;-17
2022/04/04 06:32:49;;;;;;;1.93;1.77;;;12.40;39.20;;;;;;5084226;28;47123;-16
2022/04/04 06:35:16;;;;;;;1.70;1.60;;;12.50;39.30;;;;;;5085459;28;46869;-17
2022/04/04 06:37:43;;;;;;;5.60;1.83;;;12.40;39.20;;;;;;5085167;28;46859;-25
2022/04/04 06:40:10;;;;;;;1.60;1.43;;;12.50;39.30;;;;;;5075569;28;47117;-17
2022/04/04 06:42:37;;;;;;;1.50;1.40;;;12.40;39.20;;;;;;5067322;28;47620;-16
2022/04/04 06:45:04;;;;;;;3.00;1.90;;;12.50;39.20;;;;;;5083754;28;46985;-25
2022/04/04 06:47:33;;;;;;;3.40;1.83;;;12.50;39.20;;;;;;5085625;28;46864;-16
2022/04/04 06:49:59;;;;;;;3.67;1.80;;;12.50;39.20;;;;;;5073148;28;47217;-25
2022/04/04 06:52:26;;;;;;;5.10;2.07;;;12.50;39.30;;;;;;5065174;28;48229;-25
2022/04/04 06:54:53;;;;;;;2.60;2.40;;;12.50;39.20;;;;;;5068468;28;47610;-24
2022/04/04 06:57:20;;;;;;;3.00;2.10;;;12.50;39.20;;;;;;5085812;28;46962;-17
2022/04/04 06:59:48;;;;;;;2.30;1.70;;;12.50;39.10;;;;;;5074697;28;46916;-17
2022/04/04 07:02:14;;;;;;;4.47;2.00;;;12.60;39.20;;;;;;5085369;28;47984;-19
2022/04/04 07:04:42;;;;;;;6.73;2.00;;;12.60;39.80;;;;;;5072826;28;47264;-18
2022/04/04 07:07:09;;;;;;;3.20;2.83;;;12.90;40.20;;;;;;5066261;28;47026;-25
2022/04/04 07:09:36;;;;;;;5.33;1.70;;;13.30;40.90;;;;;;5076051;28;46859;-17
2022/04/04 07:12:03;;;;;;;4.67;1.87;;;13.80;39.30;;;;;;5064961;28;48166;-18
2022/04/04 07:14:30;;;;;;;5.03;1.87;;;14.20;39.50;;;;;;5065025;28;46986;-23
2022/04/04 07:16:57;;;;;;;2.53;1.80;;;14.50;40.40;;;;;;5069373;28;46886;-16
2022/04/04 07:19:24;;;;;;;4.37;1.80;;;14.90;38.50;;;;;;5072907;28;46915;-25
2022/04/04 07:21:52;;;;;;;6.10;1.50;;;15.10;38.30;;;;;;5084522;28;48844;-21
2022/04/04 07:24:19;;;;;;;2.10;1.70;;;15.40;38.10;;;;;;5084688;28;46764;-17
2022/04/04 07:26:48;;;;;;;4.37;1.60;;;15.50;37.70;;;;;;5083927;28;46797;-16
2022/04/04 07:29:14;;;;;;;3.73;1.37;;;15.60;36.90;;;;;;5083373;28;46897;-17
2022/04/04 07:31:42;;;;;;;1.50;1.40;;;15.70;36.80;;;;;;5083259;28;47904;-17
2022/04/04 07:34:10;;;;;;;1.73;1.40;;;15.70;36.60;;;;;;5083238;28;46948;-22
2022/04/04 07:36:37;;;;;;;2.67;1.37;;;15.70;36.60;;;;;;5083420;28;46800;-18
2022/04/04 07:39:05;;;;;;;4.07;1.63;;;15.70;36.50;;;;;;5083501;28;47069;-22
2022/04/04 07:41:32;;;;;;;4.70;1.70;;;15.70;36.40;;;;;;5084925;27;49193;-20
2022/04/04 07:43:59;;;;;;;1.83;1.50;;;15.80;37.00;;;;;;5088435;28;46844;-23
2022/04/04 07:46:26;;;;;;;2.45;1.27;;;15.80;37.60;;;;;;5088516;28;47021;-16
2022/04/04 07:48:55;;;;;;;2.78;1.40;;;15.90;37.20;;;;;;5088747;27;47129;-17
2022/04/04 07:51:21;;;;;;;2.38;1.52;;;16.00;37.30;;;;;;5088394;28;48131;-20
2022/04/04 07:53:48;;;;;;;6.13;1.70;;;16.10;37.00;;;;;;5088358;28;47489;-26
2022/04/04 07:56:16;;;;;;;3.10;1.48;;;16.10;37.40;;;;;;5088472;28;46771;-21
2022/04/04 07:58:44;;;;;;;1.35;1.25;;;16.20;36.90;;;;;;5090470;27;47184;-21
2022/04/04 08:01:10;;;;;;;1.80;1.30;;;16.20;36.70;;;;;;5092502;27;48237;-17
2022/04/04 08:03:37;;;;;;;2.20;1.33;;;16.20;36.50;;;;;;5087557;28;46998;-17
2022/04/04 08:06:04;;;;;;;1.20;1.20;;;16.10;36.50;;;;;;5088174;28;46922;-17
2022/04/04 08:08:31;;;;;;;1.50;1.40;;;16.10;36.50;;;;;;5088325;28;47211;-17
2022/04/04 08:10:58;;;;;;;3.42;1.70;;;16.10;36.60;;;;;;5088369;28;46959;-17
2022/04/04 08:13:27;;;;;;;2.90;1.58;;;16.00;36.70;;;;;;5087911;28;46858;-19
2022/04/04 08:15:54;;;;;;;2.50;1.40;;;16.00;36.70;;;;;;5087910;28;46909;-22
2022/04/04 08:18:21;;;;;;;2.10;1.30;;;16.00;36.80;;;;;;5088138;28;47023;-22
2022/04/04 08:20:47;;;;;;;1.52;1.30;;;16.00;36.80;;;;;;5097143;27;48910;-17
2022/04/04 08:23:14;;;;;;;2.13;1.42;;;16.00;36.80;;;;;;5108601;27;47067;-17
2022/04/04 08:25:41;;;;;;;2.55;1.30;;;16.00;36.80;;;;;;5108528;27;46885;-22
2022/04/04 08:28:08;;;;;;;1.30;1.20;;;15.90;36.80;;;;;;5108499;27;47302;-18
2022/04/04 08:30:36;;;;;;;2.33;1.40;;;16.00;36.90;;;;;;5108704;27;47874;-21
2022/04/04 08:33:03;;;;;;;12.70;2.42;;;15.90;36.90;;;;;;5108534;27;46812;-25
2022/04/04 08:35:29;;;;;;;1.40;1.30;;;15.90;37.10;;;;;;5108493;27;46924;-17
2022/04/04 08:37:56;;;;;;;3.33;1.60;;;16.00;37.70;;;;;;5108569;27;46930;-16
2022/04/04 08:40:23;;;;;;;4.40;1.60;;;16.00;37.10;;;;;;5108293;27;48904;-17
2022/04/04 08:42:49;;;;;;;5.32;2.67;;;16.00;37.10;;;;;;5107989;27;46909;-22
2022/04/04 08:45:16;;;;;;;4.43;3.60;;;16.00;36.50;;;;;;5108108;27;46884;-23
2022/04/04 08:47:44;;;;;;;4.28;3.88;;;15.90;34.90;;;;;;5104594;27;47298;-23
2022/04/04 08:50:11;;;;;;;9.00;4.13;;;15.90;35.00;;;;;;5086236;28;48056;-18
2022/04/04 08:52:38;;;;;;;12.48;4.57;;;15.80;34.90;;;;;;5086129;28;47448;-19
2022/04/04 08:55:06;;;;;;;4.88;4.28;;;15.80;35.00;;;;;;5086640;27;46779;-18
2022/04/04 08:57:32;;;;;;;6.43;4.78;;;15.80;34.80;;;;;;5087110;28;47181;-18
2022/04/04 08:59:59;;;;;;;4.72;4.13;;;15.80;34.50;;;;;;5086354;27;48023;-18
2022/04/04 09:02:26;;;;;;;7.00;4.53;;;15.80;34.50;;;;;;5085231;28;46911;-17
2022/04/04 09:05:02;;;;;;;4.70;3.83;;;15.70;34.30;;;;;;5086590;28;46880;-18
2022/04/04 09:07:29;;;;;;;4.97;3.95;;;15.60;34.40;;;;;;5084057;28;46898;-22
2022/04/04 09:09:55;;;;;;;6.65;3.80;;;15.50;35.10;;;;;;5086453;28;49037;-22
2022/04/04 09:12:23;;;;;;;6.13;4.03;;;15.60;34.90;;;;;;5085638;28;46842;-23
2022/04/04 09:14:51;;;;;;;5.97;5.15;;;15.60;34.90;;;;;;5085526;28;46979;-22
2022/04/04 09:17:19;;;;;;;4.97;3.97;;;15.60;35.00;;;;;;5084656;28;46953;-17
2022/04/04 09:19:45;;;;;;;6.22;5.40;;;15.60;35.90;;;;;;5085211;28;46935;-21
2022/04/04 09:22:14;;;;;;;7.95;5.28;;;15.60;35.40;;;;;;5085042;28;46883;-23
2022/04/04 09:24:49;;;;;;;5.03;4.53;;;15.60;35.70;;;;;;5084311;28;47016;-18
2022/04/04 09:27:21;;;;;;;4.68;4.22;;;15.60;35.40;;;;;;5084681;28;47151;-21
2022/04/04 09:29:48;;;;;;;7.28;6.43;;;15.70;34.80;;;;;;5084404;28;48771;-22
2022/04/04 09:32:15;;;;;;;4.90;4.38;;;15.60;34.40;;;;;;5085742;28;46870;-22
2022/04/04 09:35:01;;;;;;;4.38;3.90;;;15.50;34.30;;;;;;5086367;28;46390;-22
2022/04/04 09:37:30;;;;;;;5.07;3.63;;;15.50;34.60;;;;;;5086590;28;47025;-16
2022/04/04 09:40:03;;;;;;;7.13;6.53;;;15.50;34.20;;;;;;5086029;28;48143;-17
2022/04/04 09:42:31;;;;;;;5.60;5.05;;;15.50;33.70;;;;;;5086117;28;47160;-22
2022/04/04 09:44:59;;;;;;;4.70;4.10;;;15.60;34.50;;;;;;5086453;28;46870;-18
2022/04/04 09:47:53;;;;;;;5.28;3.70;;;15.60;32.90;;;;;;5082191;28;46989;-17
2022/04/04 09:50:45;;;;;;;6.65;3.47;;;15.60;31.70;;;;;;5084983;28;48973;-25
2022/04/04 09:53:17;;;;;;;4.40;3.28;;;15.80;31.30;;;;;;5069261;28;47133;-16
2022/04/04 09:55:44;;;;;;;4.47;3.42;;;15.90;31.20;;;;;;5084467;28;46883;-17
2022/04/04 09:58:14;;;;;;;3.63;3.28;;;15.90;31.00;;;;;;5084592;28;46972;-24
2022/04/04 10:00:42;;;;;;;5.78;3.88;;;15.90;31.50;;;;;;5085523;28;47924;-17
2022/04/04 10:03:12;;;;;;;3.60;3.17;;;16.00;30.70;;;;;;5084378;28;47415;-23
2022/04/04 10:05:40;;;;;;;4.53;3.30;;;16.10;30.90;;;;;;5085995;28;46896;-17
2022/04/04 10:08:07;;;;;;;6.15;5.05;;;16.10;31.50;;;;;;5085884;28;46970;-17
2022/04/04 10:10:35;;;;;;;8.43;7.43;;;16.10;31.30;;;;;;5086060;28;46908;-17
2022/04/04 10:13:02;;;;;;;5.93;5.35;;;16.10;31.30;;;;;;5085054;28;47213;-17
2022/04/04 10:15:28;;;;;;;7.80;4.45;;;16.10;31.40;;;;;;5086274;28;46953;-17
2022/04/04 10:17:56;;;;;;;3.55;2.90;;;16.10;31.90;;;;;;5086022;28;46896;-22
2022/04/04 10:20:22;;;;;;;4.38;3.00;;;16.10;30.90;;;;;;5086068;28;47061;-17
2022/04/04 10:22:51;;;;;;;3.40;2.65;;;16.10;29.80;;;;;;5085716;28;46962;-23
2022/04/04 10:25:19;;;;;;;4.95;2.65;;;16.20;29.10;;;;;;5085182;28;46941;-22
2022/04/04 10:27:47;;;;;;;4.75;3.42;;;16.30;29.80;;;;;;5084737;28;46901;-16
2022/04/04 10:30:16;;;;;;;5.13;4.47;;;16.30;30.00;;;;;;5085780;28;48070;-16
2022/04/04 10:32:48;;;;;;;6.60;4.43;;;16.20;29.00;;;;;;5085485;28;46925;-18
2022/04/04 10:35:19;;;;;;;3.70;3.22;;;16.30;29.30;;;;;;5086050;28;46868;-21
2022/04/04 10:37:46;;;;;;;4.03;3.47;;;16.30;29.20;;;;;;5085492;28;47112;-22
2022/04/04 10:40:19;;;;;;;3.92;3.63;;;16.30;29.40;;;;;;5084862;28;47650;-18
2022/04/04 10:42:48;;;;;;;3.55;3.00;;;16.40;29.60;;;;;;5085219;28;46918;-21
2022/04/04 10:45:15;;;;;;;3.50;3.20;;;16.50;29.20;;;;;;5085698;28;46889;-22
2022/04/04 10:47:43;;;;;;;17.17;13.55;;;16.50;29.80;;;;;;5085800;28;46945;-17
2022/04/04 10:50:23;;;;;;;7.57;6.55;;;16.40;29.70;;;;;;5085062;28;47079;-21
2022/04/04 10:52:50;;;;;;;6.50;5.30;;;16.50;29.30;;;;;;5084765;28;46983;-18
2022/04/04 10:55:54;;;;;;;6.10;4.95;;;16.60;29.40;;;;;;5085198;28;47139;-16
2022/04/04 10:58:23;;;;;;;4.40;3.97;;;16.70;29.10;;;;;;5079615;28;46855;-17
2022/04/04 11:01:05;;;;;;;6.88;3.15;;;16.70;28.30;;;;;;5084809;27;48784;-18
2022/04/04 11:03:34;;;;;;;7.65;4.10;;;16.80;28.70;;;;;;5078213;28;48551;-23
2022/04/04 11:09:08;;;;;;;3.50;3.20;;;16.70;28.80;;;;;;5083743;28;46849;-23
2022/04/04 11:11:41;;;;;;;3.85;3.25;;;16.70;28.60;;;;;;5065182;28;47913;-18
2022/04/04 11:14:09;;;;;;;4.93;3.80;;;16.80;28.80;;;;;;5064552;28;47224;-17
2022/04/04 11:17:11;;;;;;;5.13;3.53;;;16.80;28.80;;;;;;5068975;28;46873;-21
2022/04/04 11:19:44;;;;;;;4.47;3.70;;;16.80;28.90;;;;;;5085275;28;46905;-21
2022/04/04 11:22:12;;;;;;;4.75;3.60;;;16.80;29.10;;;;;;5085100;28;48807;-17
2022/04/04 11:24:39;;;;;;;4.38;3.10;;;16.90;29.20;;;;;;5083762;28;46926;-17
2022/04/04 11:27:07;;;;;;;3.60;3.30;;;17.00;29.20;;;;;;5083654;28;46899;-21
2022/04/04 11:29:37;;;;;;;5.60;3.78;;;17.10;29.40;;;;;;5084768;28;46882;-17
2022/04/04 11:32:04;;;;;;;4.25;3.90;;;17.20;29.20;;;;;;5085100;28;46898;-21
2022/04/04 11:34:31;;;;;;;4.70;4.03;;;17.20;29.00;;;;;;5084000;28;46898;-22
2022/04/04 11:36:58;;;;;;;3.85;3.55;;;17.20;29.00;;;;;;5085037;28;46852;-21
2022/04/04 11:39:25;;;;;;;6.38;4.28;;;17.30;29.00;;;;;;5085009;28;46895;-22
2022/04/04 11:41:52;;;;;;;4.93;3.67;;;17.30;28.70;;;;;;5085042;28;47906;-16
2022/04/04 11:44:25;;;;;;;4.78;4.07;;;17.30;28.30;;;;;;5084058;28;47188;-21
2022/04/04 11:47:06;;;;;;;6.20;4.20;;;17.40;28.40;;;;;;5084635;28;46898;-16
2022/04/04 11:49:34;;;;;;;4.20;3.83;;;17.40;28.10;;;;;;5084479;28;46915;-22
2022/04/04 11:52:05;;;;;;;4.03;3.63;;;17.50;28.20;;;;;;5084966;28;48097;-18
2022/04/04 11:54:40;;;;;;;4.22;3.38;;;17.50;28.30;;;;;;5084309;28;46894;-21
2022/04/04 11:57:07;;;;;;;4.07;3.28;;;17.50;28.80;;;;;;5084619;28;46906;-22
2022/04/04 11:59:35;;;;;;;4.82;3.50;;;17.60;28.70;;;;;;5084990;28;46897;-22
2022/04/04 12:02:03;;;;;;;5.70;3.50;;;17.60;28.60;;;;;;5084582;28;49122;-22
2022/04/04 12:04:32;;;;;;;3.83;3.53;;;17.70;28.40;;;;;;5084642;28;46979;-22
2022/04/04 12:07:00;;;;;;;4.03;2.97;;;17.80;28.20;;;;;;5084884;28;46776;-17
2022/04/04 12:09:30;;;;;;;4.57;3.47;;;17.90;28.70;;;;;;5084927;28;46913;-22
2022/04/04 12:12:05;;;;;;;4.05;3.08;;;18.00;28.20;;;;;;5084740;28;47952;-21
2022/04/04 12:14:33;;;;;;;4.40;3.00;;;18.10;28.40;;;;;;5084649;28;46911;-22
2022/04/04 12:17:00;;;;;;;3.78;3.33;;;18.10;28.10;;;;;;5084897;28;46818;-17
2022/04/04 12:19:28;;;;;;;3.30;2.80;;;18.10;27.30;;;;;;5082052;28;46839;-22
2022/04/04 12:21:57;;;;;;;3.55;2.70;;;18.20;27.90;;;;;;5064319;28;48987;-21
2022/04/04 12:27:09;;;;;;;5.22;2.90;;;18.20;28.50;;;;;;5081882;28;46906;-21
2022/04/04 12:29:40;;;;;;;4.30;3.15;;;18.20;28.00;;;;;;5087797;28;46968;-22
2022/04/04 12:32:14;;;;;;;3.63;2.72;;;18.30;28.00;;;;;;5067393;28;47915;-17
2022/04/04 12:34:40;;;;;;;3.50;2.42;;;18.50;28.40;;;;;;5071580;28;47014;-17
2022/04/04 12:37:10;;;;;;;2.78;2.30;;;18.60;27.80;;;;;;5088054;28;46856;-17
2022/04/04 12:39:36;;;;;;;2.97;2.67;;;18.60;28.20;;;;;;5087890;28;46889;-22
2022/04/04 12:42:07;;;;;;;3.20;2.35;;;18.70;28.30;;;;;;5087686;28;47161;-18
2022/04/04 12:44:34;;;;;;;2.72;2.53;;;18.80;28.10;;;;;;5087583;28;46870;-17
2022/04/04 12:47:08;;;;;;;2.70;2.42;;;18.90;28.50;;;;;;5087971;28;46835;-22
2022/04/04 12:49:35;;;;;;;4.13;2.75;;;18.90;28.10;;;;;;5087461;28;47430;-22
2022/04/04 12:52:06;;;;;;;4.80;3.17;;;18.90;27.90;;;;;;5087254;28;47759;-18
2022/04/04 12:54:35;;;;;;;3.47;2.78;;;19.00;27.30;;;;;;5086618;28;47366;-22
2022/04/04 12:57:04;;;;;;;4.57;2.55;;;19.00;27.60;;;;;;5087695;28;46798;-18
2022/04/04 12:59:31;;;;;;;4.30;2.83;;;19.10;28.30;;;;;;5087590;28;47266;-21
2022/04/04 13:02:02;;;;;;;2.97;2.67;;;18.90;27.70;;;;;;5087468;28;48086;-22